Omaha, NE (68110)

8:04 AM CDT on August 04, 2015 (GMT -0500)
CarterLake.org | | Change Station
CLOSE
Current Station
Personal Weather Station
Location: Carter Lake, IA
Elevation: 980 ft
Nearby Weather Stations

Elev 980 ft 41.29 °N, 95.92 °W | Updated 1 second ago

Light Thunderstorms and Rain
Light Thunderstorm Rain
67.8 °F
Feels Like 67.8 °F
N
0.7
Wind Variable Wind from North
Gusts 2.3 mph

Today
High -- | Low -- °F
--% Chance of Precip.
Yesterday
High -- | Low -- °F
Precip. -- in
6:21 AM 8:37 PM
Waning Gibbous, 78% visible
Pressure 29.99 in
Visibility 10.0 miles
Clouds Scattered Clouds 4000 ft
Mostly Cloudy 6000 ft
Overcast 10000 ft
Dew Point 63 °F
Humidity 84%
Rainfall 0.11 in
Snow Depth Not available.
UV 0 out of 12
Pollen 4.80 out of 12
Air Quality Not available.
Flu Activity Not available.
METAR KOMA 041252Z 19006KT 10SM -TSRA SCT040CB BKN060 OVC100 20/18 A3001 RMK AO2 SLP156 OCNL LTGICCC SE-SW-NW TS SE-SW-NW MOV E P0009 T02000183

More Conditions Fewer Conditions

Pressure 29.99 in
Visibility 10.0 miles
Clouds Scattered Clouds 4000 ft
Mostly Cloudy 6000 ft
Overcast 10000 ft
Dew Point 63 °F
Humidity 84%
Rainfall 0.11 in
Snow Depth Not available.
UV 0 out of 12
Pollen 4.80 out of 12
Air Quality Not available.
Flu Activity Not available.
METAR KOMA 041252Z 19006KT 10SM -TSRA SCT040CB BKN060 OVC100 20/18 A3001 RMK AO2 SLP156 OCNL LTGICCC SE-SW-NW TS SE-SW-NW MOV E P0009 T02000183

More Conditions Fewer Conditions

10-Day Weather Forecast

×

Almanac

Astronomy

Aug. 04, 2015 Rise Set
Actual Time
Civil Twilight
Nautical Twilight
Astronomical Twilight
Moon
Length of Visible Light
Length of Day
Tomorrow will be .
, % of the Moon is Illuminated

Today's Extremes

State Highs State Lows

Community

WunderPhotos

Upload Photos

1,843,914 photos uploaded!

WunderBlogs® & News

Nearby

Air Quality

  Air Quality AQ Index Pollutant
Not available.

Snow Depth

Station Depth Elevation

Earthquake Activity

City Distance Mag. Time & Date
Minimum magnitude displayed is 2.5.

Coastal Water Temperatures

Place Temperature

Stations

Nearby Weather Stations

Station Location Temp. Windchill Dew Point Humidity Wind Precip. Elev Updated Type